sensor_id;sensor_type;location;lat;lon;timestamp;temperature;humidity
67502;SHT30;54349;52.528;19.760;2023-06-22T00:00:38;20.26;56.20
67502;SHT30;54349;52.528;19.760;2023-06-22T00:03:28;20.23;56.06
67502;SHT30;54349;52.528;19.760;2023-06-22T00:05:56;20.22;55.90
67502;SHT30;54349;52.528;19.760;2023-06-22T00:08:25;20.19;55.94
67502;SHT30;54349;52.528;19.760;2023-06-22T00:10:53;20.18;55.93
67502;SHT30;54349;52.528;19.760;2023-06-22T00:13:21;20.16;55.84
67502;SHT30;54349;52.528;19.760;2023-06-22T00:15:50;20.14;55.93
67502;SHT30;54349;52.528;19.760;2023-06-22T00:18:18;20.11;55.96
67502;SHT30;54349;52.528;19.760;2023-06-22T00:20:46;20.09;55.92
67502;SHT30;54349;52.528;19.760;2023-06-22T00:23:15;20.08;55.96
67502;SHT30;54349;52.528;19.760;2023-06-22T00:25:43;20.06;55.86
67502;SHT30;54349;52.528;19.760;2023-06-22T00:28:12;20.04;55.84
67502;SHT30;54349;52.528;19.760;2023-06-22T00:30:40;20.02;55.88
67502;SHT30;54349;52.528;19.760;2023-06-22T00:33:08;19.98;55.76
67502;SHT30;54349;52.528;19.760;2023-06-22T00:35:37;19.90;55.69
67502;SHT30;54349;52.528;19.760;2023-06-22T00:38:05;19.81;55.64
67502;SHT30;54349;52.528;19.760;2023-06-22T00:40:33;19.74;55.76
67502;SHT30;54349;52.528;19.760;2023-06-22T00:43:03;19.67;55.90
67502;SHT30;54349;52.528;19.760;2023-06-22T00:45:33;19.62;55.90
67502;SHT30;54349;52.528;19.760;2023-06-22T00:48:01;19.55;55.82
67502;SHT30;54349;52.528;19.760;2023-06-22T00:50:31;19.50;55.91
67502;SHT30;54349;52.528;19.760;2023-06-22T00:53:03;19.45;55.96
67502;SHT30;54349;52.528;19.760;2023-06-22T00:55:37;19.41;56.07
67502;SHT30;54349;52.528;19.760;2023-06-22T00:58:11;19.34;56.05
67502;SHT30;54349;52.528;19.760;2023-06-22T01:00:41;19.36;56.72
67502;SHT30;54349;52.528;19.760;2023-06-22T01:03:10;19.77;57.24
67502;SHT30;54349;52.528;19.760;2023-06-22T01:05:39;20.29;56.52
67502;SHT30;54349;52.528;19.760;2023-06-22T01:10:53;21.10;56.19
67502;SHT30;54349;52.528;19.760;2023-06-22T01:13:36;20.94;56.13
67502;SHT30;54349;52.528;19.760;2023-06-22T01:16:23;20.66;56.15
67502;SHT30;54349;52.528;19.760;2023-06-22T01:18:54;20.43;55.94
67502;SHT30;54349;52.528;19.760;2023-06-22T01:21:28;20.24;55.66
67502;SHT30;54349;52.528;19.760;2023-06-22T01:24:15;20.07;55.64
67502;SHT30;54349;52.528;19.760;2023-06-22T01:29:27;19.75;55.53
67502;SHT30;54349;52.528;19.760;2023-06-22T01:31:58;19.64;55.56
67502;SHT30;54349;52.528;19.760;2023-06-22T01:34:29;19.54;56.01
67502;SHT30;54349;52.528;19.760;2023-06-22T01:37:00;19.75;57.04
67502;SHT30;54349;52.528;19.760;2023-06-22T01:39:30;20.23;56.62
67502;SHT30;54349;52.528;19.760;2023-06-22T01:41:59;20.65;56.32
67502;SHT30;54349;52.528;19.760;2023-06-22T01:44:28;21.04;56.24
67502;SHT30;54349;52.528;19.760;2023-06-22T01:46:57;21.13;56.74
67502;SHT30;54349;52.528;19.760;2023-06-22T01:49:25;20.88;56.64
67502;SHT30;54349;52.528;19.760;2023-06-22T01:51:54;20.62;57.16
67502;SHT30;54349;52.528;19.760;2023-06-22T01:54:23;20.43;56.76
67502;SHT30;54349;52.528;19.760;2023-06-22T01:56:52;20.23;56.36
67502;SHT30;54349;52.528;19.760;2023-06-22T01:59:34;20.05;56.39
67502;SHT30;54349;52.528;19.760;2023-06-22T02:02:09;19.89;56.24
67502;SHT30;54349;52.528;19.760;2023-06-22T02:07:17;19.60;56.29
67502;SHT30;54349;52.528;19.760;2023-06-22T02:09:48;19.62;57.45
67502;SHT30;54349;52.528;19.760;2023-06-22T02:12:22;20.04;57.46
67502;SHT30;54349;52.528;19.760;2023-06-22T02:14:53;20.48;57.00
67502;SHT30;54349;52.528;19.760;2023-06-22T02:17:21;20.87;56.66
67502;SHT30;54349;52.528;19.760;2023-06-22T02:19:51;21.08;56.83
67502;SHT30;54349;52.528;19.760;2023-06-22T02:22:20;20.87;56.31
67502;SHT30;54349;52.528;19.760;2023-06-22T02:24:48;20.59;56.66
67502;SHT30;54349;52.528;19.760;2023-06-22T02:27:17;20.37;56.42
67502;SHT30;54349;52.528;19.760;2023-06-22T02:29:45;20.15;56.05
67502;SHT30;54349;52.528;19.760;2023-06-22T02:32:13;19.95;56.11
67502;SHT30;54349;52.528;19.760;2023-06-22T02:34:46;19.78;56.10
67502;SHT30;54349;52.528;19.760;2023-06-22T02:37:16;19.63;56.22
67502;SHT30;54349;52.528;19.760;2023-06-22T02:39:45;19.68;57.56
67502;SHT30;54349;52.528;19.760;2023-06-22T02:42:13;20.06;57.39
67502;SHT30;54349;52.528;19.760;2023-06-22T02:44:43;20.47;57.13
67502;SHT30;54349;52.528;19.760;2023-06-22T02:47:13;20.84;56.84
67502;SHT30;54349;52.528;19.760;2023-06-22T02:49:41;21.12;56.96
67502;SHT30;54349;52.528;19.760;2023-06-22T02:52:10;21.05;57.60
67502;SHT30;54349;52.528;19.760;2023-06-22T02:54:39;20.78;57.67
67502;SHT30;54349;52.528;19.760;2023-06-22T02:57:08;20.54;57.65
67502;SHT30;54349;52.528;19.760;2023-06-22T02:59:42;20.34;56.95
67502;SHT30;54349;52.528;19.760;2023-06-22T03:02:11;20.11;56.67
67502;SHT30;54349;52.528;19.760;2023-06-22T03:04:40;19.92;56.50
67502;SHT30;54349;52.528;19.760;2023-06-22T03:07:08;19.79;57.23
67502;SHT30;54349;52.528;19.760;2023-06-22T03:09:37;20.06;57.97
67502;SHT30;54349;52.528;19.760;2023-06-22T03:12:05;20.47;57.66
67502;SHT30;54349;52.528;19.760;2023-06-22T03:14:41;20.84;57.18
67502;SHT30;54349;52.528;19.760;2023-06-22T03:17:09;21.11;57.18
67502;SHT30;54349;52.528;19.760;2023-06-22T03:19:38;20.97;56.74
67502;SHT30;54349;52.528;19.760;2023-06-22T03:22:07;20.66;56.90
67502;SHT30;54349;52.528;19.760;2023-06-22T03:24:35;20.41;56.85
67502;SHT30;54349;52.528;19.760;2023-06-22T03:27:06;20.19;56.38
67502;SHT30;54349;52.528;19.760;2023-06-22T03:29:34;19.96;56.47
67502;SHT30;54349;52.528;19.760;2023-06-22T03:32:03;19.91;57.74
67502;SHT30;54349;52.528;19.760;2023-06-22T03:34:33;20.24;57.85
67502;SHT30;54349;52.528;19.760;2023-06-22T03:37:05;20.63;57.44
67502;SHT30;54349;52.528;19.760;2023-06-22T03:39:33;20.98;57.04
67502;SHT30;54349;52.528;19.760;2023-06-22T03:42:01;21.18;56.88
67502;SHT30;54349;52.528;19.760;2023-06-22T03:44:30;20.96;56.35
67502;SHT30;54349;52.528;19.760;2023-06-22T03:46:58;20.65;56.73
67502;SHT30;54349;52.528;19.760;2023-06-22T03:49:26;20.38;56.45
67502;SHT30;54349;52.528;19.760;2023-06-22T03:51:55;20.14;56.25
67502;SHT30;54349;52.528;19.760;2023-06-22T03:54:23;19.92;56.32
67502;SHT30;54349;52.528;19.760;2023-06-22T03:56:51;19.88;57.62
67502;SHT30;54349;52.528;19.760;2023-06-22T03:59:20;20.25;57.67
67502;SHT30;54349;52.528;19.760;2023-06-22T04:01:48;20.62;57.21
67502;SHT30;54349;52.528;19.760;2023-06-22T04:04:17;20.95;56.89
67502;SHT30;54349;52.528;19.760;2023-06-22T04:06:46;21.20;57.07
67502;SHT30;54349;52.528;19.760;2023-06-22T04:09:14;21.07;57.48
67502;SHT30;54349;52.528;19.760;2023-06-22T04:11:43;20.78;57.72
67502;SHT30;54349;52.528;19.760;2023-06-22T04:14:11;20.56;57.78
67502;SHT30;54349;52.528;19.760;2023-06-22T04:16:39;20.33;57.00
67502;SHT30;54349;52.528;19.760;2023-06-22T04:19:08;20.11;56.68
67502;SHT30;54349;52.528;19.760;2023-06-22T04:21:42;19.91;57.10
67502;SHT30;54349;52.528;19.760;2023-06-22T04:24:12;20.06;58.28
67502;SHT30;54349;52.528;19.760;2023-06-22T04:26:41;20.43;57.85
67502;SHT30;54349;52.528;19.760;2023-06-22T04:29:13;20.80;57.39
67502;SHT30;54349;52.528;19.760;2023-06-22T04:31:42;21.09;57.12
67502;SHT30;54349;52.528;19.760;2023-06-22T04:34:10;21.07;57.01
67502;SHT30;54349;52.528;19.760;2023-06-22T04:36:39;20.76;56.83
67502;SHT30;54349;52.528;19.760;2023-06-22T04:39:10;20.49;57.02
67502;SHT30;54349;52.528;19.760;2023-06-22T04:41:39;20.24;56.73
67502;SHT30;54349;52.528;19.760;2023-06-22T04:46:40;19.82;56.89
67502;SHT30;54349;52.528;19.760;2023-06-22T04:49:08;19.82;58.22
67502;SHT30;54349;52.528;19.760;2023-06-22T04:51:41;20.17;58.08
67502;SHT30;54349;52.528;19.760;2023-06-22T04:54:10;20.54;57.58
67502;SHT30;54349;52.528;19.760;2023-06-22T04:56:38;20.87;57.13
67502;SHT30;54349;52.528;19.760;2023-06-22T04:59:08;21.02;57.33
67502;SHT30;54349;52.528;19.760;2023-06-22T05:01:40;20.77;56.95
67502;SHT30;54349;52.528;19.760;2023-06-22T05:04:09;20.49;57.40
67502;SHT30;54349;52.528;19.760;2023-06-22T05:06:38;20.27;56.96
67502;SHT30;54349;52.528;19.760;2023-06-22T05:09:08;20.04;56.67
67502;SHT30;54349;52.528;19.760;2023-06-22T05:11:36;19.96;57.88
67502;SHT30;54349;52.528;19.760;2023-06-22T05:14:04;20.28;57.90
67502;SHT30;54349;52.528;19.760;2023-06-22T05:16:33;20.62;57.39
67502;SHT30;54349;52.528;19.760;2023-06-22T05:19:02;20.94;56.92
67502;SHT30;54349;52.528;19.760;2023-06-22T05:21:34;21.14;57.09
67502;SHT30;54349;52.528;19.760;2023-06-22T05:24:02;20.93;56.71
67502;SHT30;54349;52.528;19.760;2023-06-22T05:26:32;20.62;56.86
67502;SHT30;54349;52.528;19.760;2023-06-22T05:29:02;20.36;56.47
67502;SHT30;54349;52.528;19.760;2023-06-22T05:31:30;20.10;56.29
67502;SHT30;54349;52.528;19.760;2023-06-22T05:33:59;19.90;56.66
67502;SHT30;54349;52.528;19.760;2023-06-22T05:36:28;20.06;57.60
67502;SHT30;54349;52.528;19.760;2023-06-22T05:38:57;20.41;57.30
67502;SHT30;54349;52.528;19.760;2023-06-22T05:41:26;20.77;56.81
67502;SHT30;54349;52.528;19.760;2023-06-22T05:43:54;21.05;56.61
67502;SHT30;54349;52.528;19.760;2023-06-22T05:46:23;21.05;56.68
67502;SHT30;54349;52.528;19.760;2023-06-22T05:48:51;20.74;56.46
67502;SHT30;54349;52.528;19.760;2023-06-22T05:51:19;20.45;56.59
67502;SHT30;54349;52.528;19.760;2023-06-22T05:53:48;20.20;56.25
67502;SHT30;54349;52.528;19.760;2023-06-22T05:56:17;20.00;56.31
67502;SHT30;54349;52.528;19.760;2023-06-22T05:58:46;19.89;57.33
67502;SHT30;54349;52.528;19.760;2023-06-22T06:01:15;20.19;57.53
67502;SHT30;54349;52.528;19.760;2023-06-22T06:03:43;20.56;57.05
67502;SHT30;54349;52.528;19.760;2023-06-22T06:06:13;20.90;57.03
67502;SHT30;54349;52.528;19.760;2023-06-22T06:08:41;21.16;57.44
67502;SHT30;54349;52.528;19.760;2023-06-22T06:11:09;21.01;57.16
67502;SHT30;54349;52.528;19.760;2023-06-22T06:13:37;20.75;57.65
67502;SHT30;54349;52.528;19.760;2023-06-22T06:16:06;20.52;57.55
67502;SHT30;54349;52.528;19.760;2023-06-22T06:18:34;20.34;57.60
67502;SHT30;54349;52.528;19.760;2023-06-22T06:21:02;20.18;57.81
67502;SHT30;54349;52.528;19.760;2023-06-22T06:23:31;20.05;58.04
67502;SHT30;54349;52.528;19.760;2023-06-22T06:25:59;19.93;58.34
67502;SHT30;54349;52.528;19.760;2023-06-22T06:28:27;19.83;58.68
67502;SHT30;54349;52.528;19.760;2023-06-22T06:30:55;19.73;58.76
67502;SHT30;54349;52.528;19.760;2023-06-22T06:33:24;19.66;59.28
67502;SHT30;54349;52.528;19.760;2023-06-22T06:35:53;19.59;59.56
67502;SHT30;54349;52.528;19.760;2023-06-22T06:38:26;19.54;59.33
67502;SHT30;54349;52.528;19.760;2023-06-22T06:40:54;19.49;59.24
67502;SHT30;54349;52.528;19.760;2023-06-22T06:43:23;19.43;58.83
67502;SHT30;54349;52.528;19.760;2023-06-22T06:45:52;19.44;59.52
67502;SHT30;54349;52.528;19.760;2023-06-22T06:48:21;19.86;60.36
67502;SHT30;54349;52.528;19.760;2023-06-22T06:50:49;20.40;59.94
67502;SHT30;54349;52.528;19.760;2023-06-22T06:53:18;20.85;59.68
67502;SHT30;54349;52.528;19.760;2023-06-22T06:55:47;21.21;59.50
67502;SHT30;54349;52.528;19.760;2023-06-22T06:58:16;21.17;59.21
67502;SHT30;54349;52.528;19.760;2023-06-22T07:00:44;20.93;59.03
67502;SHT30;54349;52.528;19.760;2023-06-22T07:03:12;20.72;58.66
67502;SHT30;54349;52.528;19.760;2023-06-22T07:05:41;20.54;58.40
67502;SHT30;54349;52.528;19.760;2023-06-22T07:08:10;20.38;58.30
67502;SHT30;54349;52.528;19.760;2023-06-22T07:10:38;20.26;58.17
67502;SHT30;54349;52.528;19.760;2023-06-22T07:13:07;20.15;58.13
67502;SHT30;54349;52.528;19.760;2023-06-22T07:15:35;20.06;58.00
67502;SHT30;54349;52.528;19.760;2023-06-22T07:18:03;19.97;57.93
67502;SHT30;54349;52.528;19.760;2023-06-22T07:20:32;19.90;57.89
67502;SHT30;54349;52.528;19.760;2023-06-22T07:23:00;19.83;57.89
67502;SHT30;54349;52.528;19.760;2023-06-22T07:25:28;19.75;57.82
67502;SHT30;54349;52.528;19.760;2023-06-22T07:28:01;19.70;57.72
67502;SHT30;54349;52.528;19.760;2023-06-22T07:30:31;19.64;57.49
67502;SHT30;54349;52.528;19.760;2023-06-22T07:33:01;19.59;57.40
67502;SHT30;54349;52.528;19.760;2023-06-22T07:35:36;19.53;57.23
67502;SHT30;54349;52.528;19.760;2023-06-22T07:38:04;19.49;57.15
67502;SHT30;54349;52.528;19.760;2023-06-22T07:40:33;19.45;57.05
67502;SHT30;54349;52.528;19.760;2023-06-22T07:43:03;19.43;56.97
67502;SHT30;54349;52.528;19.760;2023-06-22T07:45:31;19.41;56.91
67502;SHT30;54349;52.528;19.760;2023-06-22T07:48:03;19.39;57.02
67502;SHT30;54349;52.528;19.760;2023-06-22T07:50:31;19.37;57.28
67502;SHT30;54349;52.528;19.760;2023-06-22T07:52:59;19.35;57.35
67502;SHT30;54349;52.528;19.760;2023-06-22T07:55:28;19.34;57.58
67502;SHT30;54349;52.528;19.760;2023-06-22T07:57:56;19.34;58.04
67502;SHT30;54349;52.528;19.760;2023-06-22T08:00:26;19.34;58.01
67502;SHT30;54349;52.528;19.760;2023-06-22T08:02:54;19.34;58.25
67502;SHT30;54349;52.528;19.760;2023-06-22T08:05:22;19.36;58.73
67502;SHT30;54349;52.528;19.760;2023-06-22T08:07:51;19.37;58.73
67502;SHT30;54349;52.528;19.760;2023-06-22T08:10:20;19.38;58.85
67502;SHT30;54349;52.528;19.760;2023-06-22T08:12:49;19.39;58.75
67502;SHT30;54349;52.528;19.760;2023-06-22T08:15:18;19.39;58.68
67502;SHT30;54349;52.528;19.760;2023-06-22T08:17:48;19.41;58.72
67502;SHT30;54349;52.528;19.760;2023-06-22T08:20:17;19.42;58.87
67502;SHT30;54349;52.528;19.760;2023-06-22T08:22:45;19.44;59.03
67502;SHT30;54349;52.528;19.760;2023-06-22T08:25:13;19.45;58.82
67502;SHT30;54349;52.528;19.760;2023-06-22T08:27:44;19.44;58.58
67502;SHT30;54349;52.528;19.760;2023-06-22T08:30:14;19.43;58.77
67502;SHT30;54349;52.528;19.760;2023-06-22T08:32:44;19.44;59.01
67502;SHT30;54349;52.528;19.760;2023-06-22T08:35:13;19.44;58.95
67502;SHT30;54349;52.528;19.760;2023-06-22T08:37:41;19.44;59.06
67502;SHT30;54349;52.528;19.760;2023-06-22T08:40:10;19.46;59.09
67502;SHT30;54349;52.528;19.760;2023-06-22T08:42:42;19.50;59.08
67502;SHT30;54349;52.528;19.760;2023-06-22T08:45:10;19.51;58.95
67502;SHT30;54349;52.528;19.760;2023-06-22T08:47:38;19.51;58.85
67502;SHT30;54349;52.528;19.760;2023-06-22T08:50:09;19.52;58.84
67502;SHT30;54349;52.528;19.760;2023-06-22T08:52:40;19.54;58.74
67502;SHT30;54349;52.528;19.760;2023-06-22T08:55:09;19.56;58.89
67502;SHT30;54349;52.528;19.760;2023-06-22T08:57:38;19.57;58.63
67502;SHT30;54349;52.528;19.760;2023-06-22T09:00:07;19.58;58.52
67502;SHT30;54349;52.528;19.760;2023-06-22T09:02:47;19.59;58.36
67502;SHT30;54349;52.528;19.760;2023-06-22T09:05:16;19.60;58.30
67502;SHT30;54349;52.528;19.760;2023-06-22T09:07:46;19.61;58.63
67502;SHT30;54349;52.528;19.760;2023-06-22T09:10:16;19.63;58.82
67502;SHT30;54349;52.528;19.760;2023-06-22T09:12:45;19.65;59.08
67502;SHT30;54349;52.528;19.760;2023-06-22T09:15:13;19.66;59.12
67502;SHT30;54349;52.528;19.760;2023-06-22T09:17:45;19.67;59.62
67502;SHT30;54349;52.528;19.760;2023-06-22T09:20:15;19.70;59.67
67502;SHT30;54349;52.528;19.760;2023-06-22T09:22:44;19.73;59.79
67502;SHT30;54349;52.528;19.760;2023-06-22T09:25:12;19.74;59.78
67502;SHT30;54349;52.528;19.760;2023-06-22T09:27:41;19.74;59.68
67502;SHT30;54349;52.528;19.760;2023-06-22T09:30:11;19.75;59.63
67502;SHT30;54349;52.528;19.760;2023-06-22T09:32:40;19.77;59.30
67502;SHT30;54349;52.528;19.760;2023-06-22T09:35:09;19.78;59.26
67502;SHT30;54349;52.528;19.760;2023-06-22T09:37:40;19.80;59.18
67502;SHT30;54349;52.528;19.760;2023-06-22T09:40:08;19.82;58.86
67502;SHT30;54349;52.528;19.760;2023-06-22T09:42:41;19.82;58.79
67502;SHT30;54349;52.528;19.760;2023-06-22T09:45:10;19.83;58.67
67502;SHT30;54349;52.528;19.760;2023-06-22T09:47:43;19.83;58.38
67502;SHT30;54349;52.528;19.760;2023-06-22T09:50:13;19.84;58.33
67502;SHT30;54349;52.528;19.760;2023-06-22T09:52:42;19.85;58.56
67502;SHT30;54349;52.528;19.760;2023-06-22T09:55:15;19.90;59.06
67502;SHT30;54349;52.528;19.760;2023-06-22T09:57:45;19.90;57.71
67502;SHT30;54349;52.528;19.760;2023-06-22T10:00:14;19.85;57.46
67502;SHT30;54349;52.528;19.760;2023-06-22T10:02:46;19.84;58.08
67502;SHT30;54349;52.528;19.760;2023-06-22T10:05:14;19.85;58.15
67502;SHT30;54349;52.528;19.760;2023-06-22T10:07:44;19.86;58.04
67502;SHT30;54349;52.528;19.760;2023-06-22T10:10:13;19.89;57.90
67502;SHT30;54349;52.528;19.760;2023-06-22T10:12:46;19.92;57.82
67502;SHT30;54349;52.528;19.760;2023-06-22T10:15:22;19.94;57.67
67502;SHT30;54349;52.528;19.760;2023-06-22T10:17:52;19.97;57.64
67502;SHT30;54349;52.528;19.760;2023-06-22T10:20:22;19.98;57.62
67502;SHT30;54349;52.528;19.760;2023-06-22T10:22:53;20.00;57.56
67502;SHT30;54349;52.528;19.760;2023-06-22T10:25:21;20.02;57.59
67502;SHT30;54349;52.528;19.760;2023-06-22T10:27:50;20.06;57.64
67502;SHT30;54349;52.528;19.760;2023-06-22T10:30:19;20.08;57.53
67502;SHT30;54349;52.528;19.760;2023-06-22T10:32:48;20.09;57.44
67502;SHT30;54349;52.528;19.760;2023-06-22T10:35:16;20.10;57.50
67502;SHT30;54349;52.528;19.760;2023-06-22T10:37:45;20.13;57.35
67502;SHT30;54349;52.528;19.760;2023-06-22T10:40:15;20.15;57.48
67502;SHT30;54349;52.528;19.760;2023-06-22T10:42:44;20.15;57.47
67502;SHT30;54349;52.528;19.760;2023-06-22T10:45:12;20.16;57.43
67502;SHT30;54349;52.528;19.760;2023-06-22T10:47:41;20.18;57.40
67502;SHT30;54349;52.528;19.760;2023-06-22T10:50:10;20.19;57.07
67502;SHT30;54349;52.528;19.760;2023-06-22T10:52:39;20.17;56.90
67502;SHT30;54349;52.528;19.760;2023-06-22T10:55:09;20.19;58.76
67502;SHT30;54349;52.528;19.760;2023-06-22T10:57:38;20.28;60.08
67502;SHT30;54349;52.528;19.760;2023-06-22T11:00:12;20.36;59.53
67502;SHT30;54349;52.528;19.760;2023-06-22T11:02:41;20.39;58.85
67502;SHT30;54349;52.528;19.760;2023-06-22T11:05:10;20.41;58.90
67502;SHT30;54349;52.528;19.760;2023-06-22T11:07:42;20.42;58.31
67502;SHT30;54349;52.528;19.760;2023-06-22T11:10:13;20.39;58.59
67502;SHT30;54349;52.528;19.760;2023-06-22T11:12:42;20.40;58.65
67502;SHT30;54349;52.528;19.760;2023-06-22T11:15:11;20.40;58.44
67502;SHT30;54349;52.528;19.760;2023-06-22T11:17:40;20.41;58.21
67502;SHT30;54349;52.528;19.760;2023-06-22T11:20:09;20.43;58.02
67502;SHT30;54349;52.528;19.760;2023-06-22T11:22:39;20.45;57.60
67502;SHT30;54349;52.528;19.760;2023-06-22T11:25:09;20.43;56.31
67502;SHT30;54349;52.528;19.760;2023-06-22T11:27:41;20.38;55.95
67502;SHT30;54349;52.528;19.760;2023-06-22T11:30:09;20.35;56.63
67502;SHT30;54349;52.528;19.760;2023-06-22T11:32:38;20.35;56.75
67502;SHT30;54349;52.528;19.760;2023-06-22T11:35:07;20.36;56.56
67502;SHT30;54349;52.528;19.760;2023-06-22T11:37:35;20.36;56.92
67502;SHT30;54349;52.528;19.760;2023-06-22T11:40:05;20.38;57.07
67502;SHT30;54349;52.528;19.760;2023-06-22T11:42:37;20.40;56.94
67502;SHT30;54349;52.528;19.760;2023-06-22T11:45:06;20.41;56.82
67502;SHT30;54349;52.528;19.760;2023-06-22T11:47:35;20.41;56.98
67502;SHT30;54349;52.528;19.760;2023-06-22T11:50:04;20.39;56.31
67502;SHT30;54349;52.528;19.760;2023-06-22T11:52:34;20.38;56.97
67502;SHT30;54349;52.528;19.760;2023-06-22T11:55:04;20.40;57.24
67502;SHT30;54349;52.528;19.760;2023-06-22T11:57:35;20.43;56.89
67502;SHT30;54349;52.528;19.760;2023-06-22T12:00:04;20.44;55.84
67502;SHT30;54349;52.528;19.760;2023-06-22T12:02:44;20.38;55.73
67502;SHT30;54349;52.528;19.760;2023-06-22T12:05:13;20.35;55.99
67502;SHT30;54349;52.528;19.760;2023-06-22T12:07:42;20.40;57.94
67502;SHT30;54349;52.528;19.760;2023-06-22T12:10:10;20.46;57.66
67502;SHT30;54349;52.528;19.760;2023-06-22T12:12:38;20.44;57.36
67502;SHT30;54349;52.528;19.760;2023-06-22T12:15:08;20.43;57.70
67502;SHT30;54349;52.528;19.760;2023-06-22T12:17:37;20.46;57.41
67502;SHT30;54349;52.528;19.760;2023-06-22T12:20:06;20.47;56.13
67502;SHT30;54349;52.528;19.760;2023-06-22T12:22:35;20.48;55.95
67502;SHT30;54349;52.528;19.760;2023-06-22T12:25:05;20.53;55.95
67502;SHT30;54349;52.528;19.760;2023-06-22T12:27:35;20.59;54.96
67502;SHT30;54349;52.528;19.760;2023-06-22T12:30:04;20.58;54.62
67502;SHT30;54349;52.528;19.760;2023-06-22T12:32:34;20.62;54.80
67502;SHT30;54349;52.528;19.760;2023-06-22T12:35:02;20.67;55.33
67502;SHT30;54349;52.528;19.760;2023-06-22T12:37:31;20.72;54.57
67502;SHT30;54349;52.528;19.760;2023-06-22T12:40:00;20.73;54.48
67502;SHT30;54349;52.528;19.760;2023-06-22T12:42:28;20.74;54.61
67502;SHT30;54349;52.528;19.760;2023-06-22T12:44:57;20.74;54.43
67502;SHT30;54349;52.528;19.760;2023-06-22T12:47:25;20.76;54.13
67502;SHT30;54349;52.528;19.760;2023-06-22T12:49:54;20.78;53.68
67502;SHT30;54349;52.528;19.760;2023-06-22T12:52:23;20.80;53.51
67502;SHT30;54349;52.528;19.760;2023-06-22T12:54:51;20.82;53.59
67502;SHT30;54349;52.528;19.760;2023-06-22T12:57:22;20.85;53.70
67502;SHT30;54349;52.528;19.760;2023-06-22T12:59:51;20.88;53.28
67502;SHT30;54349;52.528;19.760;2023-06-22T13:02:19;20.90;53.18
67502;SHT30;54349;52.528;19.760;2023-06-22T13:04:48;20.94;53.50
67502;SHT30;54349;52.528;19.760;2023-06-22T13:07:17;20.98;53.72
67502;SHT30;54349;52.528;19.760;2023-06-22T13:09:50;20.99;53.73
67502;SHT30;54349;52.528;19.760;2023-06-22T13:12:21;21.00;53.29
67502;SHT30;54349;52.528;19.760;2023-06-22T13:14:50;21.02;53.06
67502;SHT30;54349;52.528;19.760;2023-06-22T13:17:18;21.05;52.78
67502;SHT30;54349;52.528;19.760;2023-06-22T13:19:46;21.06;52.71
67502;SHT30;54349;52.528;19.760;2023-06-22T13:25:00;21.06;52.03
67502;SHT30;54349;52.528;19.760;2023-06-22T13:27:29;21.09;52.26
67502;SHT30;54349;52.528;19.760;2023-06-22T13:29:57;21.11;52.18
67502;SHT30;54349;52.528;19.760;2023-06-22T13:32:25;21.11;52.22
67502;SHT30;54349;52.528;19.760;2023-06-22T13:34:54;21.12;52.27
67502;SHT30;54349;52.528;19.760;2023-06-22T13:37:23;21.14;52.23
67502;SHT30;54349;52.528;19.760;2023-06-22T13:39:51;21.17;52.25
67502;SHT30;54349;52.528;19.760;2023-06-22T13:42:20;21.20;51.83
67502;SHT30;54349;52.528;19.760;2023-06-22T13:44:48;21.13;51.05
67502;SHT30;54349;52.528;19.760;2023-06-22T13:47:17;21.04;51.31
67502;SHT30;54349;52.528;19.760;2023-06-22T13:49:45;20.94;51.48
67502;SHT30;54349;52.528;19.760;2023-06-22T13:52:14;20.89;51.44
67502;SHT30;54349;52.528;19.760;2023-06-22T13:54:42;20.82;51.39
67502;SHT30;54349;52.528;19.760;2023-06-22T13:57:11;20.75;51.16
67502;SHT30;54349;52.528;19.760;2023-06-22T13:59:39;20.67;50.43
67502;SHT30;54349;52.528;19.760;2023-06-22T14:02:08;20.57;50.52
67502;SHT30;54349;52.528;19.760;2023-06-22T14:04:36;20.50;50.39
67502;SHT30;54349;52.528;19.760;2023-06-22T14:07:04;20.44;51.06
67502;SHT30;54349;52.528;19.760;2023-06-22T14:09:32;20.39;51.87
67502;SHT30;54349;52.528;19.760;2023-06-22T14:12:04;20.42;53.75
67502;SHT30;54349;52.528;19.760;2023-06-22T14:14:34;20.55;54.46
67502;SHT30;54349;52.528;19.760;2023-06-22T14:17:03;20.58;53.19
67502;SHT30;54349;52.528;19.760;2023-06-22T14:19:32;20.52;52.56
67502;SHT30;54349;52.528;19.760;2023-06-22T14:22:01;20.45;51.78
67502;SHT30;54349;52.528;19.760;2023-06-22T14:24:29;20.37;51.76
67502;SHT30;54349;52.528;19.760;2023-06-22T14:26:58;20.31;51.86
67502;SHT30;54349;52.528;19.760;2023-06-22T14:29:27;20.25;51.35
67502;SHT30;54349;52.528;19.760;2023-06-22T14:31:55;20.18;51.26
67502;SHT30;54349;52.528;19.760;2023-06-22T14:34:23;20.13;51.18
67502;SHT30;54349;52.528;19.760;2023-06-22T14:36:51;20.09;51.71
67502;SHT30;54349;52.528;19.760;2023-06-22T14:39:20;20.04;51.21
67502;SHT30;54349;52.528;19.760;2023-06-22T14:41:48;19.99;51.87
67502;SHT30;54349;52.528;19.760;2023-06-22T14:44:17;19.96;52.71
67502;SHT30;54349;52.528;19.760;2023-06-22T14:46:45;19.97;53.07
67502;SHT30;54349;52.528;19.760;2023-06-22T14:49:13;19.97;52.20
67502;SHT30;54349;52.528;19.760;2023-06-22T14:51:41;19.95;52.45
67502;SHT30;54349;52.528;19.760;2023-06-22T14:54:10;19.95;53.56
67502;SHT30;54349;52.528;19.760;2023-06-22T14:56:38;19.99;53.89
67502;SHT30;54349;52.528;19.760;2023-06-22T14:59:06;20.04;53.83
67502;SHT30;54349;52.528;19.760;2023-06-22T15:01:34;20.09;53.95
67502;SHT30;54349;52.528;19.760;2023-06-22T15:04:03;20.12;53.84
67502;SHT30;54349;52.528;19.760;2023-06-22T15:06:31;20.14;53.89
67502;SHT30;54349;52.528;19.760;2023-06-22T15:08:59;20.14;53.83
67502;SHT30;54349;52.528;19.760;2023-06-22T15:11:27;20.12;52.76
67502;SHT30;54349;52.528;19.760;2023-06-22T15:13:58;20.09;53.59
67502;SHT30;54349;52.528;19.760;2023-06-22T15:16:28;20.08;53.92
67502;SHT30;54349;52.528;19.760;2023-06-22T15:18:56;20.08;54.02
67502;SHT30;54349;52.528;19.760;2023-06-22T15:21:24;20.10;54.09
67502;SHT30;54349;52.528;19.760;2023-06-22T15:23:53;20.10;53.98
67502;SHT30;54349;52.528;19.760;2023-06-22T15:26:21;20.11;54.04
67502;SHT30;54349;52.528;19.760;2023-06-22T15:28:49;20.09;53.93
67502;SHT30;54349;52.528;19.760;2023-06-22T15:31:18;20.09;53.99
67502;SHT30;54349;52.528;19.760;2023-06-22T15:33:46;20.08;53.98
67502;SHT30;54349;52.528;19.760;2023-06-22T15:36:15;20.07;53.93
67502;SHT30;54349;52.528;19.760;2023-06-22T15:38:43;20.05;53.92
67502;SHT30;54349;52.528;19.760;2023-06-22T15:41:11;20.04;53.93